Data for 05/06/2009

Time Sea-Level Adjusted Pressure Absolute Pressure Temperature Relative Humidity Dew Point   
(mb) (inHg) (mb) (inHg) (C) (F) (%) (C) (F)
00:05 1014 29.94 843 24.89 7.6 45.6 56 -0.6 31
00:10 1014 29.94 843 24.89 7.7 45.9 57 -0.2 31.6
00:15 1014 29.94 843 24.89 7.6 45.8 60 0.4 32.8
00:20 1014 29.94 843 24.89 7.7 45.8 57 -0.3 31.5
00:25 1014 29.94 843 24.89 7.8 46 58 -0 32
00:30 1014 29.94 843 24.89 7.8 46 58 0 32.1
00:35 1014 29.94 843 24.89 7.7 45.9 59 0.2 32.3
00:40 1014 29.94 844 24.92 7.6 45.7 58 -0 32
00:45 1014 29.94 844 24.92 7.6 45.6 59 0.1 32.1
00:50 1014 29.94 844 24.92 7.5 45.6 58 -0.3 31.5
00:55 1014 29.94 844 24.92 7.5 45.5 57 -0.5 31
01:00 1014 29.94 844 24.92 7.6 45.6 56 -0.6 31
01:05 1014 29.94 844 24.92 7.5 45.5 58 -0.2 31.6
01:10 1014 29.94 844 24.92 7.4 45.3 59 -0 31.9
01:15 1014 29.94 844 24.92 7.3 45.2 60 0.2 32.3
01:20 1014 29.94 844 24.92 7.2 45 61 0.3 32.5
01:25 1014 29.94 844 24.92 7.1 44.8 63 0.6 33
01:30 1014 29.94 844 24.92 6.9 44.5 62 0.3 32.5
01:35 1014 29.94 844 24.92 6.9 44.5 61 0 32
01:40 1014 29.94 844 24.92 6.9 44.5 60 -0.3 31.4
01:45 1015 29.97 844 24.92 6.8 44.3 59 -0.7 30.8
01:50 1015 29.97 844 24.92 6.8 44.2 59 -0.7 30.8
01:55 1015 29.97 844 24.92 6.8 44.2 58 -0.9 30.4
02:00 1015 29.97 844 24.92 6.8 44.3 57 -1.1 30
02:05 1015 29.97 844 24.92 6.9 44.3 57 -1.1 30
02:10 1015 29.97 844 24.92 6.9 44.3 57 -1.1 30.1
02:15 1015 29.97 844 24.92 6.8 44.3 57 -1.2 29.9
02:20 1015 29.97 844 24.92 6.8 44.2 57 -1.2 29.9
02:25 1015 29.97 844 24.92 6.7 44.1 57 -1.1 30.1
02:30 1015 29.97 844 24.92 6.7 44.1 57 -1.3 29.7
02:35 1015 29.97 844 24.92 6.6 43.9 55 -1.8 28.7
02:40 1015 29.97 844 24.92 6.6 43.9 55 -1.8 28.7
02:45 1015 29.97 844 24.92 6.6 43.9 55 -1.6 29
02:50 1015 29.97 844 24.92 6.6 43.9 53 -2.2 28.1
02:55 1015 29.97 844 24.92 6.6 43.9 54 -2 28.5
03:00 1015 29.97 844 24.92 6.6 43.8 54 -2 28.5
03:05 1015 29.97 844 24.92 6.6 43.8 55 -1.8 28.7
03:10 1015 29.97 844 24.92 6.4 43.6 55 -1.9 28.5
03:15 1015 29.97 844 24.92 6.4 43.5 56 -1.8 28.8
03:20 1015 29.97 844 24.92 6.3 43.4 56 -1.8 28.8
03:25 1015 29.97 844 24.92 6.3 43.3 58 -1.4 29.5
03:30 1015 29.97 844 24.92 6.2 43.2 58 -1.4 29.5
03:35 1015 29.97 844 24.92 6.1 43 59 -1.2 29.8
03:40 1015 29.97 844 24.92 6 42.8 59 -1.4 29.4
03:45 1015 29.97 844 24.92 6 42.8 59 -1.5 29.4
03:50 1015 29.97 844 24.92 6 42.9 58 -1.5 29.2
03:55 1015 29.97 844 24.92 6.1 43 58 -1.6 29.1
04:00 1015 29.97 844 24.92 6.2 43.2 56 -1.8 28.7
04:05 1015 29.97 844 24.92 6.2 43.2 56 -1.9 28.6
04:10 1015 29.97 844 24.92 6.2 43.2 57 -1.6 29.1
04:15 1015 29.97 844 24.92 6.2 43.1 59 -1.3 29.6
04:20 1015 29.97 844 24.92 6.1 43 58 -1.6 29.1
04:25 1015 29.97 844 24.92 6.2 43.1 57 -1.6 29.1
04:30 1015 29.97 844 24.92 6.3 43.3 57 -1.6 29.1
04:35 1015 29.97 844 24.92 6.2 43.2 58 -1.3 29.6
04:40 1015 29.97 844 24.92 6.2 43.2 59 -1.1 30
04:45 1015 29.97 844 24.92 6.2 43.1 59 -1.3 29.6
04:50 1015 29.97 844 24.92 6.1 43 58 -1.6 29.2
04:55 1015 29.97 844 24.92 6.1 43.1 58 -1.4 29.5
05:00 1015 29.97 844 24.92 6.1 43 59 -1.3 29.7
05:05 1015 29.97 844 24.92 6.1 43 59 -1.3 29.7
05:10 1015 29.97 844 24.92 6.1 42.9 60 -1.1 29.9
05:15 1015 29.97 844 24.92 6.1 42.9 61 -1 30.3
05:20 1015 29.97 844 24.92 6.1 43 60 -1.2 29.9
05:25 1015 29.97 844 24.92 5.9 42.6 66 0.1 32.2
05:30 1015 29.97 844 24.92 5.4 41.8 61 -1.5 29.2
05:35 1015 29.97 844 24.92 5.5 41.8 63 -1 30.2
05:40 1015 29.97 844 24.92 5.3 41.6 65 -0.8 30.6
05:45 1015 29.97 844 24.92 5.2 41.3 65 -1 30.3
05:50 1015 29.97 844 24.92 5 40.9 65 -1 30.3
05:55 1015 29.97 844 24.92 4.8 40.7 67 -0.8 30.5
06:00 1015 29.97 844 24.92 4.5 40.1 68 -0.8 30.6
06:05 1015 29.97 844 24.92 4.4 39.9 70 -0.7 30.8
06:10 1015 29.97 844 24.92 4.4 39.9 70 -0.7 30.8
06:15 1015 29.97 844 24.92 4.3 39.8 70 -0.6 30.9
06:20 1015 29.97 844 24.92 4.3 39.8 71 -0.4 31.3
06:25 1015 29.97 844 24.92 4.5 40.1 69 -0.6 30.9
06:30 1015 29.97 844 24.92 4.5 40.2 70 -0.5 31.2
06:35 1015 29.97 844 24.92 4.4 40 72 -0.2 31.6
06:40 1015 29.97 844 24.92 4.4 39.9 70 -0.5 31.1
06:45 1015 29.97 844 24.92 4.4 40 71 -0.4 31.3
06:50 1015 29.97 844 24.92 4.5 40.2 70 -0.4 31.3
06:55 1015 29.97 844 24.92 4.6 40.3 70 -0.4 31.2
07:00 1015 29.97 844 24.92 4.7 40.5 69 -0.4 31.3
07:05 1015 29.97 844 24.92 4.8 40.7 63 -1.6 29.2
07:10 1015 29.97 844 24.92 5.1 41.1 68 -0.3 31.4
07:15 1015 29.97 844 24.92 5.4 41.7 67 -0.2 31.7
07:20 1015 29.97 844 24.92 5.6 42 69 0.4 32.7
07:25 1015 29.97 844 24.92 5.8 42.4 70 0.8 33.4
07:30 1015 29.97 844 24.92 5.7 42.3 68 0.4 32.6
07:35 1015 29.97 844 24.92 5.9 42.7 68 0.6 33
07:40 1015 29.97 844 24.92 6.1 43.1 71 1.3 34.3
07:45 1015 29.97 844 24.92 6 42.7 70 0.9 33.7
07:50 1015 29.97 844 24.92 5.8 42.5 70 0.8 33.5
07:55 1015 29.97 844 24.92 5.9 42.6 70 0.8 33.5
08:00 1015 29.97 844 24.92 5.8 42.5 70 0.8 33.5
08:05 1015 29.97 844 24.92 5.8 42.4 69 0.5 32.9
08:10 1015 29.97 844 24.92 5.7 42.2 65 -0.3 31.4
08:15 1015 29.97 844 24.92 5.9 42.6 66 0.1 32.2
08:20 1015 29.97 844 24.92 6.1 43 64 -0.2 31.6
08:25 1015 29.97 844 24.92 6.4 43.4 61 -0.5 31.1
08:30 1015 29.97 844 24.92 6.8 44.3 61 -0.2 31.7
08:35 1015 29.97 844 24.92 7.1 44.7 56 -1 30.2
08:40 1015 29.97 844 24.92 7.4 45.3 54 -1.3 29.6
08:45 1015 29.97 844 24.92 7.4 45.3 55 -0.9 30.3
08:50 1015 29.97 844 24.92 7.5 45.5 54 -1.2 29.9
08:55 1015 29.97 844 24.92 7.8 46.1 54 -0.9 30.3
09:00 1015 29.97 844 24.92 7.7 45.9 55 -0.8 30.6
09:05 1015 29.97 844 24.92 7.7 45.9 56 -0.4 31.2
09:10 1015 29.97 844 24.92 8.1 46.6 54 -0.7 30.7
09:15 1015 29.97 844 24.92 8.1 46.6 54 -0.7 30.7
09:20 1015 29.97 844 24.92 8.3 47 50 -1.4 29.4
09:25 1015 29.97 844 24.92 8.3 46.9 48 -2 28.3
09:30 1015 29.97 844 24.92 8.4 47.1 49 -1.6 29.2
09:35 1015 29.97 844 24.92 8.4 47.2 46 -2.4 27.6
09:40 1015 29.97 844 24.92 8.5 47.4 46 -2.5 27.4
09:45 1015 29.97 844 24.92 8.6 47.5 43 -3.3 26
09:50 1015 29.97 844 24.92 8.7 47.7 44 -3 26.7
09:55 1015 29.97 844 24.92 8.8 47.8 43 -3.2 26.3
10:00 1015 29.97 844 24.92 9.1 48.5 42 -3.1 26.3
10:05 1015 29.97 844 24.92 9.2 48.6 42 -3 26.6
10:10 1015 29.97 844 24.92 9.2 48.6 42 -2.9 26.7
10:15 1015 29.97 844 24.92 9.3 48.8 42 -2.9 26.8
10:20 1014 29.94 844 24.92 9.5 49.1 42 -2.7 27.2
10:25 1014 29.94 844 24.92 9.5 49.1 43 -2.6 27.4
10:30 1014 29.94 843 24.89 9.6 49.3 41 -2.9 26.9
10:35 1014 29.94 843 24.89 9.8 49.6 42 -2.5 27.5
10:40 1014 29.94 843 24.89 9.8 49.7 42 -2.6 27.4
10:45 1014 29.94 843 24.89 10.2 50.3 41 -2.4 27.6
10:50 1014 29.94 843 24.89 10.4 50.7 40 -2.5 27.4
10:55 1014 29.94 843 24.89 10.4 50.7 41 -2.3 27.9
11:00 1014 29.94 843 24.89 10.7 51.3 40 -2.3 27.9
11:05 1014 29.94 843 24.89 10.5 50.9 41 -2.1 28.3
11:10 1014 29.94 843 24.89 10.3 50.6 42 -2 28.5
11:15 1014 29.94 843 24.89 10 50.1 41 -2.4 27.6
11:20 1014 29.94 843 24.89 10.1 50.2 41 -2.4 27.8
11:25 1014 29.94 843 24.89 10.2 50.4 42 -2 28.3
11:30 1014 29.94 843 24.89 10.3 50.5 42 -2.1 28.2
11:35 1014 29.94 843 24.89 10 50.1 42 -2.2 28.1
11:40 1014 29.94 843 24.89 10.1 50.1 43 -1.9 28.6
11:45 1014 29.94 843 24.89 10 49.9 44 -1.8 28.8
11:50 1014 29.94 843 24.89 9.8 49.6 43 -2.1 28.2
11:55 1014 29.94 843 24.89 9.8 49.7 45 -1.6 29.2
12:00 1014 29.94 843 24.89 9.9 49.8 45 -1.4 29.4
12:05 1014 29.94 843 24.89 10.2 50.3 45 -1.3 29.6
12:10 1014 29.94 843 24.89 10 50 45 -1.4 29.6
12:15 1014 29.94 843 24.89 9.9 49.9 44 -1.6 29.2
12:20 1014 29.94 843 24.89 9.7 49.4 46 -1.3 29.7
12:25 1014 29.94 843 24.89 9.9 49.8 45 -1.5 29.3
12:30 1014 29.94 843 24.89 9.9 49.8 45 -1.3 29.6
12:35 1014 29.94 843 24.89 10 49.9 47 -0.9 30.4
12:40 1014 29.94 843 24.89 9.7 49.5 49 -0.4 31.3
12:45 1014 29.94 843 24.89 9.7 49.4 48 -0.7 30.7
12:50 1013 29.91 843 24.89 9.8 49.7 50 0 32
12:55 1013 29.91 843 24.89 9.6 49.2 53 0.4 32.7
13:00 1013 29.91 843 24.89 9.1 48.4 55 0.6 33.1
13:05 1013 29.91 843 24.89 9.2 48.6 52 -0 32
13:10 1013 29.91 842 24.86 9.2 48.6 53 0.2 32.4
13:15 1013 29.91 842 24.86 9.3 48.8 58 1.5 34.7
13:20 1013 29.91 842 24.86 8.8 47.9 58 1 33.8
13:25 1013 29.91 842 24.86 9 48.2 57 1 33.8
13:30 1013 29.91 842 24.86 9.5 49.1 55 1 33.9
13:35 1013 29.91 842 24.86 9.4 48.8 56 1.2 34.1
13:40 1013 29.91 842 24.86 9.5 49 55 0.8 33.5
13:45 1013 29.91 842 24.86 10.1 50.2 51 0.5 32.9
13:50 1013 29.91 842 24.86 10.4 50.7 52 1 33.8
13:55 1012 29.88 842 24.86 10.5 51 51 0.8 33.5
14:00 1012 29.88 842 24.86 10.6 51.2 51 1 33.8
14:05 1012 29.88 842 24.86 10.8 51.4 53 1.6 34.9
14:10 1012 29.88 841 24.83 10.3 50.6 56 1.9 35.4
14:15 1012 29.88 841 24.83 10.1 50.2 55 1.6 34.9
14:20 1012 29.88 841 24.83 9.9 49.8 55 1.4 34.5
14:25 1012 29.88 841 24.83 10.3 50.6 52 0.9 33.7
14:30 1012 29.88 841 24.83 10.3 50.5 54 1.4 34.6
14:35 1012 29.88 841 24.83 10.3 50.6 53 1.3 34.4
14:40 1012 29.88 841 24.83 10.5 50.9 53 1.3 34.4
14:45 1012 29.88 841 24.83 10.6 51.2 54 1.6 34.9
14:50 1012 29.88 841 24.83 10.7 51.2 53 1.5 34.7
14:55 1012 29.88 841 24.83 10.5 50.9 54 1.6 34.9
15:00 1012 29.88 841 24.83 9.9 49.8 59 2.4 36.3
15:05 1012 29.88 841 24.83 9.3 48.8 63 2.6 36.8
15:10 1012 29.88 842 24.86 9 48.1 65 2.8 37.1
15:15 1012 29.88 841 24.83 8.4 47.1 67 2.7 36.9
15:20 1012 29.88 841 24.83 8.1 46.6 70 2.9 37.3
15:25 1012 29.88 842 24.86 8.1 46.5 72 3.3 37.9
15:30 1012 29.88 842 24.86 7.9 46.2 76 3.9 39
15:35 1012 29.88 842 24.86 7.5 45.4 79 4.1 39.4
15:40 1013 29.91 842 24.86 7.5 45.4 79 4.1 39.3
15:45 1013 29.91 842 24.86 7.5 45.6 81 4.4 40
15:50 1013 29.91 842 24.86 7.6 45.6 81 4.5 40.1
15:55 1013 29.91 842 24.86 7.3 45.1 85 5 40.9
16:00 1013 29.91 842 24.86 7.2 45 85 4.8 40.7
16:05 1013 29.91 842 24.86 7.2 44.9 85 4.9 40.8
16:10 1013 29.91 842 24.86 7.1 44.7 87 5.1 41.2
16:15 1013 29.91 842 24.86 6.6 43.9 91 5.2 41.4
16:20 1013 29.91 842 24.86 6.5 43.8 90 5 41.1
16:25 1013 29.91 842 24.86 6.5 43.8 90 5 41
16:30 1013 29.91 842 24.86 7 44.7 89 5.3 41.5
16:35 1013 29.91 842 24.86 7.6 45.6 88 5.6 42.2
16:40 1013 29.91 842 24.86 8.2 46.8 77 4.5 40.1
16:45 1013 29.91 842 24.86 7.7 45.8 88 5.8 42.4
16:50 1013 29.91 842 24.86 8.3 47 78 4.7 40.4
16:55 1013 29.91 842 24.86 8.3 46.9 77 4.5 40.1
17:00 1013 29.91 842 24.86 8.2 46.7 74 3.8 38.8
17:05 1013 29.91 842 24.86 8.5 47.3 77 4.7 40.4
17:10 1013 29.91 842 24.86 9.3 48.7 71 4.4 39.9
17:15 1013 29.91 842 24.86 9.5 49.1 72 4.7 40.5
17:20 1013 29.91 842 24.86 10.1 50.1 68 4.5 40.2
17:25 1013 29.91 842 24.86 10 50 68 4.4 40
17:30 1013 29.91 842 24.86 9.9 49.9 69 4.5 40.2
17:35 1013 29.91 842 24.86 9.9 49.7 69 4.4 40
17:40 1012 29.88 842 24.86 10.2 50.3 66 4.2 39.6
17:45 1012 29.88 842 24.86 10.5 50.8 66 4.5 40
17:50 1012 29.88 841 24.83 10 50 67 4.2 39.5
17:55 1012 29.88 841 24.83 10.4 50.7 67 4.7 40.4
18:00 1012 29.88 842 24.86 10.8 51.4 65 4.5 40
18:05 1013 29.91 842 24.86 11 51.8 65 4.7 40.5
18:10 1013 29.91 842 24.86 10 50.1 69 4.7 40.5
18:15 1013 29.91 842 24.86 9.6 49.2 71 4.6 40.3
18:20 1013 29.91 842 24.86 9.9 49.7 71 4.9 40.9
18:25 1013 29.91 842 24.86 9.8 49.6 72 5.1 41.2
18:30 1013 29.91 842 24.86 8.9 48.1 80 5.7 42.2
18:35 1013 29.91 842 24.86 8 46.4 84 5.4 41.7
18:40 1013 29.91 842 24.86 7.7 45.9 83 5.1 41.1
18:45 1013 29.91 842 24.86 7.3 45.2 86 5.2 41.3
18:50 1013 29.91 843 24.89 7.3 45.1 85 4.9 40.8
18:55 1013 29.91 843 24.89 7.4 45.2 85 5 40.9
19:00 1013 29.91 843 24.89 7.6 45.6 79 4.1 39.5
19:05 1013 29.91 843 24.89 7.7 45.8 81 4.5 40.2
19:10 1014 29.94 843 24.89 8 46.4 78 4.4 39.9
19:15 1014 29.94 843 24.89 8.2 46.8 79 4.7 40.5
19:20 1014 29.94 843 24.89 8.5 47.4 78 4.9 40.8
19:25 1014 29.94 843 24.89 8.7 47.7 75 4.6 40.3
19:30 1014 29.94 843 24.89 8.6 47.6 74 4.2 39.6
19:35 1014 29.94 843 24.89 8.5 47.3 77 4.8 40.6
19:40 1014 29.94 843 24.89 8.1 46.6 82 5.2 41.4
19:45 1014 29.94 843 24.89 8 46.4 83 5.3 41.6
19:50 1014 29.94 843 24.89 7.8 46 85 5.4 41.8
19:55 1014 29.94 843 24.89 7.7 45.8 85 5.3 41.5
20:00 1014 29.94 843 24.89 7.6 45.6 85 5.2 41.4
20:05 1014 29.94 843 24.89 7.5 45.5 85 5.1 41.2
20:10 1014 29.94 843 24.89 7.4 45.4 85 5 41
20:15 1014 29.94 843 24.89 7.5 45.5 84 5 41.1
20:20 1014 29.94 843 24.89 7.6 45.7 83 4.9 40.8
20:25 1014 29.94 843 24.89 7.7 45.8 83 4.9 40.8
20:30 1014 29.94 843 24.89 7.7 45.8 82 4.8 40.6
20:35 1014 29.94 843 24.89 7.9 46.2 81 4.7 40.5
20:40 1014 29.94 843 24.89 8 46.3 81 4.9 40.8
20:45 1014 29.94 843 24.89 7.7 45.8 82 4.8 40.6
20:50 1014 29.94 843 24.89 7.7 45.8 82 4.9 40.8
20:55 1014 29.94 843 24.89 7.5 45.6 82 4.8 40.6
21:00 1014 29.94 843 24.89 7.5 45.4 81 4.4 39.9
21:05 1014 29.94 843 24.89 7.6 45.8 81 4.6 40.4
21:10 1014 29.94 843 24.89 7.7 45.9 80 4.6 40.2
21:15 1014 29.94 843 24.89 7.7 45.9 80 4.5 40
21:20 1014 29.94 843 24.89 7.6 45.8 81 4.6 40.3
21:25 1014 29.94 843 24.89 7.6 45.6 81 4.6 40.3
21:30 1014 29.94 843 24.89 7.6 45.7 80 4.5 40
21:35 1014 29.94 843 24.89 7.5 45.5 81 4.4 40
21:40 1014 29.94 843 24.89 7.3 45.1 82 4.4 39.8
21:45 1014 29.94 843 24.89 7.1 44.8 83 4.3 39.8
21:50 1014 29.94 843 24.89 7 44.6 83 4.2 39.6
21:55 1014 29.94 843 24.89 7.1 44.9 80 4 39.2
22:00 1014 29.94 843 24.89 7.2 45 80 4 39.2
22:05 1014 29.94 843 24.89 7 44.5 83 4.2 39.6
22:10 1014 29.94 843 24.89 6.6 43.8 85 4.2 39.5
22:15 1014 29.94 843 24.89 6.4 43.5 85 4 39.1
22:20 1014 29.94 843 24.89 6.4 43.4 84 3.8 38.9
22:25 1014 29.94 843 24.89 6.4 43.6 82 3.6 38.5
22:30 1014 29.94 843 24.89 6.6 43.8 83 3.9 39
22:35 1014 29.94 843 24.89 6.5 43.6 83 3.8 38.9
22:40 1014 29.94 843 24.89 6.4 43.6 84 4 39.1
22:45 1014 29.94 843 24.89 6.3 43.3 85 4 39.1
22:50 1014 29.94 843 24.89 6.1 43 85 3.7 38.7
22:55 1014 29.94 843 24.89 6.1 43 83 3.5 38.3
23:00 1014 29.94 843 24.89 6.3 43.3 81 3.2 37.8
23:05 1014 29.94 843 24.89 6.4 43.5 81 3.5 38.2
23:10 1014 29.94 843 24.89 6.5 43.7 82 3.7 38.7
23:15 1014 29.94 843 24.89 6.3 43.4 84 3.8 38.9
23:20 1014 29.94 843 24.89 6.2 43.2 84 3.7 38.7
23:25 1014 29.94 843 24.89 6.1 43 85 3.7 38.7
23:30 1013 29.91 843 24.89 6 42.9 86 3.9 39.1
23:35 1014 29.94 843 24.89 5.9 42.6 87 3.8 38.9
23:40 1014 29.94 843 24.89 5.9 42.6 87 3.8 38.9
23:45 1013 29.91 843 24.89 5.8 42.5 87 3.8 38.8
23:50 1013 29.91 842 24.86 5.7 42.2 88 3.8 38.8
23:55 1013 29.91 842 24.86 5.5 42 89 3.8 38.9
24:00 1013 29.91 843 24.89 5.5 41.8 89 3.8 38.8